• LFSB

    METAR de LFSB (émis le 2019/09/16 13:30 UTC):
    LFSB 161330Z 25010KT 200V290 9999 FEW050 SCT260 29/16 Q1019 NOSIG

    TAF de LFSB (émis le 2019/09/16 12:42 UTC):
    LFSB 161100Z 1612/1712 29005KT CAVOK
  • LFSX

    METAR de LFSX (émis le 2019/09/16 13:30 UTC):
    LFSX 161330Z AUTO 26009KT 230V310 CAVOK 29/12 Q1019

    TAF de LFSX (émis le 2019/09/16 15:48 UTC):
    LFSX 161400Z 1615/1715 30005KT CAVOK
  • LFSD

    METAR de LFSD (émis le 2019/09/16 13:30 UTC):
    LFSD 161330Z AUTO VRB04KT CAVOK 31/13 Q1019

    TAF de LFSD (émis le 2015/06/01 00:11 UTC):
    LFSD 010600Z 0100/0124 CNL
  • LFGJ

    METAR de LFGJ (émis le 2019/09/16 13:30 UTC):
    LFGJ 161330Z AUTO 19005KT 130V230 CAVOK 31/15 Q1019 NOSIG

    TAF COURT de LFGJ
    (émis le 2019/09/16 12:42 UTC):
    TAF LFGJ 161100Z 1612/1621 02006KT CAVOK
  • LFJL

    METAR de LFJL (émis le 2019/09/16 13:30 UTC):
    LFJL 161330Z AUTO 30007KT 230V350 CAVOK 26/07 Q1019 NOSIG

    TAF de LFJL (émis le 2019/09/16 12:21 UTC):
    LFJL 161100Z 1612/1712 29004KT CAVOK BECMG 1619/1621 36006KT PROB40 TEMPO 1707/1709 BKN013
  • LFST

    METAR de LFST (émis le 2019/09/16 10:30 UTC):
    LFST 161030Z AUTO VRB02KT CAVOK 25/13 Q1020 NOSIG

    TAF de LFST (émis le 2019/09/16 12:21 UTC):
    LFST 161100Z 1612/1712 VRB03KT CAVOK BECMG 1616/1618 34006KT PROB40 1707/1711 04010KT BKN025